Time;durP1;ratioP1;P1;durP2;ratioP2;P2;SDS_P1;SDS_P2;PMS_P1;PMS_P2;Temp;Humidity;BMP_temperature;BMP_pressure;BME280_temperature;BME280_humidity;BME280_pressure;Samples;Min_cycle;Max_cycle;Signal;HPM_P1;HPM_P2
2023/09/17 00:01:24;;;;;;;16.30;11.50;;;;;;;16.27;100.00;101789.58;109797;1242;57131;-82
2023/09/17 00:03:53;;;;;;;16.40;11.50;;;;;;;16.23;100.00;101788.91;109862;1240;57695;-82
2023/09/17 00:06:23;;;;;;;17.10;11.90;;;;;;;16.18;100.00;101785.74;109831;1242;62000;-82
2023/09/17 00:08:52;;;;;;;15.50;11.70;;;;;;;16.10;100.00;101781.05;109837;1240;62071;-81
2023/09/17 00:11:21;;;;;;;21.50;12.10;;;;;;;16.09;100.00;101781.01;109846;1240;60018;-82
2023/09/17 00:13:50;;;;;;;16.40;11.80;;;;;;;16.10;100.00;101778.30;109814;1240;62524;-82
2023/09/17 00:16:20;;;;;;;16.90;12.00;;;;;;;16.14;100.00;101780.43;109658;1242;57730;-82
2023/09/17 00:18:49;;;;;;;16.90;11.30;;;;;;;16.18;100.00;101779.11;109726;1240;61456;-82
2023/09/17 00:21:17;;;;;;;15.90;11.90;;;;;;;16.21;100.00;101778.66;109792;1240;73773;-81
2023/09/17 00:23:46;;;;;;;15.40;11.70;;;;;;;16.24;100.00;101776.66;109923;1240;61200;-81
2023/09/17 00:26:15;;;;;;;17.20;12.30;;;;;;;16.28;100.00;101777.42;109791;1240;59215;-81
2023/09/17 00:28:45;;;;;;;17.10;12.20;;;;;;;16.30;100.00;101774.27;109791;1242;62297;-81
2023/09/17 00:31:14;;;;;;;18.40;13.30;;;;;;;16.33;100.00;101771.39;109673;1241;61868;-82
2023/09/17 00:33:44;;;;;;;18.00;12.00;;;;;;;16.39;100.00;101768.94;109589;1241;61299;-81
2023/09/17 00:36:13;;;;;;;18.20;11.90;;;;;;;16.43;100.00;101767.90;109720;1241;74201;-81
2023/09/17 00:38:41;;;;;;;15.60;12.10;;;;;;;16.47;100.00;101767.10;109665;1241;72398;-81
2023/09/17 00:41:10;;;;;;;17.30;12.10;;;;;;;16.49;100.00;101768.02;109679;1239;60969;-81
2023/09/17 00:43:39;;;;;;;18.30;13.30;;;;;;;16.51;100.00;101764.15;109748;1240;62535;-82
2023/09/17 00:46:08;;;;;;;21.00;11.90;;;;;;;16.52;100.00;101765.13;109775;1241;57727;-82
2023/09/17 00:48:37;;;;;;;18.40;12.20;;;;;;;16.44;100.00;101766.41;109804;1240;57496;-82
2023/09/17 00:51:06;;;;;;;14.50;11.00;;;;;;;16.39;100.00;101769.09;109884;1240;63046;-81
2023/09/17 00:53:36;;;;;;;15.40;11.70;;;;;;;16.40;100.00;101768.16;109482;1240;62012;-82
2023/09/17 00:56:05;;;;;;;17.60;11.90;;;;;;;16.40;100.00;101765.55;109793;1240;70241;-79
2023/09/17 00:58:34;;;;;;;17.10;11.80;;;;;;;16.40;100.00;101764.30;109676;1241;74011;-80
2023/09/17 01:01:07;;;;;;;16.50;11.70;;;;;;;16.40;100.00;101756.23;109763;1241;57929;-80
2023/09/17 01:03:36;;;;;;;16.30;11.60;;;;;;;16.42;100.00;101754.13;109788;1241;57765;-79
2023/09/17 01:06:06;;;;;;;15.40;11.50;;;;;;;16.49;100.00;101758.48;109748;1239;62882;-80
2023/09/17 01:08:37;;;;;;;15.40;11.50;;;;;;;16.52;100.00;101754.41;109675;1242;60712;-85
2023/09/17 01:11:09;;;;;;;16.70;11.30;;;;;;;16.50;100.00;101752.61;109787;1241;59019;-85
2023/09/17 01:13:51;;;;;;;18.20;11.70;;;;;;;16.46;100.00;101754.55;109658;1241;63065;-80
2023/09/17 01:16:23;;;;;;;23.20;12.80;;;;;;;16.48;100.00;101756.12;109772;1240;57617;-78
2023/09/17 01:18:53;;;;;;;15.70;12.20;;;;;;;16.52;100.00;101757.70;109469;1240;60787;-77
2023/09/17 01:21:45;;;;;;;18.00;12.00;;;;;;;16.54;100.00;101756.16;109755;1240;73286;-84
2023/09/17 01:24:47;;;;;;;16.50;11.50;;;;;;;16.56;100.00;101757.58;109832;1242;61818;-80
2023/09/17 01:27:18;;;;;;;16.50;11.80;;;;;;;16.58;100.00;101756.86;109837;1240;70353;-83
2023/09/17 01:29:47;;;;;;;15.80;11.90;;;;;;;16.57;100.00;101755.35;109730;1244;62612;-80
2023/09/17 01:32:17;;;;;;;17.60;12.00;;;;;;;16.60;100.00;101751.81;109684;1245;57690;-79
2023/09/17 01:34:52;;;;;;;16.40;11.80;;;;;;;16.61;100.00;101748.84;109748;1240;58048;-79
2023/09/17 01:37:32;;;;;;;16.60;12.30;;;;;;;16.64;100.00;101746.15;109556;1240;73242;-80
2023/09/17 01:40:07;;;;;;;19.20;12.40;;;;;;;16.61;100.00;101735.87;109864;1240;72173;-80
2023/09/17 01:42:40;;;;;;;16.70;12.30;;;;;;;16.69;100.00;101740.53;109569;1245;60226;-80
2023/09/17 01:45:12;;;;;;;14.90;11.60;;;;;;;16.71;100.00;101738.80;109569;1244;63270;-80
2023/09/17 01:47:43;;;;;;;18.50;13.00;;;;;;;16.70;100.00;101738.66;109486;1247;57732;-81
2023/09/17 01:50:16;;;;;;;19.20;13.70;;;;;;;16.72;100.00;101740.28;109598;1241;57149;-84
2023/09/17 01:52:45;;;;;;;19.80;13.10;;;;;;;16.70;100.00;101737.58;109790;1241;64109;-80
2023/09/17 01:55:14;;;;;;;15.90;12.60;;;;;;;16.70;100.00;101737.41;109813;1241;71218;-81
2023/09/17 01:57:43;;;;;;;20.40;12.40;;;;;;;16.73;100.00;101739.02;109765;1241;71767;-80
2023/09/17 02:00:19;;;;;;;17.10;12.20;;;;;;;16.73;100.00;101733.67;109664;1241;73519;-80
2023/09/17 02:02:51;;;;;;;16.80;12.10;;;;;;;16.74;100.00;101731.73;109671;1242;57602;-80
2023/09/17 02:05:21;;;;;;;17.80;13.40;;;;;;;16.73;100.00;101731.08;109680;1241;57691;-80
2023/09/17 02:07:50;;;;;;;19.40;12.90;;;;;;;16.69;100.00;101733.27;109528;1240;72758;-80
2023/09/17 02:10:20;;;;;;;16.80;12.60;;;;;;;16.67;100.00;101732.77;109519;1242;63184;-80
2023/09/17 02:12:49;;;;;;;16.70;12.70;;;;;;;16.64;100.00;101736.81;109439;1239;59806;-85
2023/09/17 02:15:19;;;;;;;18.60;12.00;;;;;;;16.63;100.00;101732.67;109498;1241;63243;-85
2023/09/17 02:17:52;;;;;;;19.30;12.90;;;;;;;16.64;100.00;101731.06;109517;1240;62989;-86
2023/09/17 02:20:21;;;;;;;;;;;;;;;16.65;100.00;101729.94;109559;1240;60658;-85
2023/09/17 02:22:53;;;;;;;16.70;12.00;;;;;;;16.67;100.00;101730.07;109748;1241;63692;-84
2023/09/17 02:25:22;;;;;;;16.90;12.00;;;;;;;16.75;100.00;101730.86;109678;1240;72804;-86
2023/09/17 02:27:50;;;;;;;16.10;11.40;;;;;;;16.80;100.00;101733.12;109534;1241;70744;-85
2023/09/17 02:30:20;;;;;;;17.20;12.50;;;;;;;16.83;100.00;101728.86;109617;1240;73999;-85
2023/09/17 02:32:48;;;;;;;18.30;12.00;;;;;;;16.83;100.00;101731.41;109650;1242;63460;-85
2023/09/17 02:35:17;;;;;;;16.70;12.00;;;;;;;16.82;100.00;101729.21;109796;1241;60727;-85
2023/09/17 02:37:46;;;;;;;16.10;11.70;;;;;;;16.82;100.00;101728.72;109649;1242;72530;-85
2023/09/17 02:40:15;;;;;;;16.40;10.90;;;;;;;16.84;100.00;101727.00;109674;1244;61707;-85
2023/09/17 02:42:45;;;;;;;20.00;11.90;;;;;;;16.88;100.00;101728.25;109681;1241;59021;-85
2023/09/17 02:45:14;;;;;;;18.00;11.50;;;;;;;16.90;100.00;101723.14;109596;1244;63947;-85
2023/09/17 02:47:43;;;;;;;17.50;11.40;;;;;;;16.94;100.00;101721.01;109701;1241;57191;-83
2023/09/17 02:50:12;;;;;;;16.90;11.90;;;;;;;16.97;100.00;101719.02;109634;1244;57738;-84
2023/09/17 02:52:41;;;;;;;14.60;11.00;;;;;;;16.96;100.00;101722.30;109745;1243;62761;-84
2023/09/17 02:55:10;;;;;;;16.50;11.20;;;;;;;16.93;100.00;101729.34;109726;1244;60759;-84
2023/09/17 02:57:39;;;;;;;14.80;10.50;;;;;;;16.87;100.00;101732.50;109692;1241;59041;-81
2023/09/17 03:00:10;;;;;;;15.90;10.90;;;;;;;16.83;100.00;101734.14;109673;1243;63131;-79
2023/09/17 03:02:40;;;;;;;16.90;11.30;;;;;;;16.77;100.00;101736.20;109495;1244;57686;-79
2023/09/17 03:05:10;;;;;;;20.20;11.00;;;;;;;16.72;100.00;101732.38;109655;1244;60453;-79
2023/09/17 03:07:41;;;;;;;16.20;10.50;;;;;;;16.67;100.00;101732.34;109749;1240;72774;-79
2023/09/17 03:10:12;;;;;;;14.20;10.70;;;;;;;16.65;100.00;101734.15;109504;1240;72388;-79
2023/09/17 03:12:43;;;;;;;15.70;10.40;;;;;;;16.64;100.00;101733.01;109839;1242;59803;-80
2023/09/17 03:15:13;;;;;;;15.30;10.70;;;;;;;16.63;100.00;101736.42;109695;1241;62378;-80
2023/09/17 03:17:42;;;;;;;15.10;10.10;;;;;;;16.67;100.00;101737.48;109740;1241;61187;-82
2023/09/17 03:20:16;;;;;;;16.90;11.30;;;;;;;16.72;100.00;101736.56;109697;1241;60651;-83
2023/09/17 03:22:47;;;;;;;15.00;10.80;;;;;;;16.78;100.00;101734.20;109605;1240;73233;-78
2023/09/17 03:25:17;;;;;;;19.10;11.20;;;;;;;16.80;100.00;101734.17;109639;1241;61461;-78
2023/09/17 03:27:46;;;;;;;17.80;10.80;;;;;;;16.81;100.00;101738.27;109687;1239;69593;-79
2023/09/17 03:30:15;;;;;;;18.90;11.50;;;;;;;16.83;100.00;101736.05;109611;1241;72857;-78
2023/09/17 03:32:44;;;;;;;15.80;11.50;;;;;;;16.85;100.00;101735.83;109468;1244;57859;-78
2023/09/17 03:35:36;;;;;;;17.50;10.80;;;;;;;16.86;100.00;101738.23;109626;1241;61055;-77
2023/09/17 03:38:05;;;;;;;16.70;10.60;;;;;;;16.87;100.00;101740.23;109430;1244;73915;-78
2023/09/17 03:40:35;;;;;;;15.10;10.10;;;;;;;16.85;100.00;101746.47;109586;1241;73094;-81
2023/09/17 03:43:04;;;;;;;15.60;10.70;;;;;;;16.79;100.00;101748.69;109512;1241;69167;-78
2023/09/17 03:45:33;;;;;;;14.70;10.80;;;;;;;16.71;100.00;101749.81;109499;1241;73147;-80
2023/09/17 03:48:04;;;;;;;16.30;10.40;;;;;;;16.69;100.00;101750.49;109458;1243;62647;-76
2023/09/17 03:50:38;;;;;;;15.10;9.90;;;;;;;16.67;100.00;101749.63;109628;1241;60546;-77
2023/09/17 03:53:08;;;;;;;15.60;10.40;;;;;;;16.66;100.00;101747.77;109604;1241;74083;-77
2023/09/17 03:55:37;;;;;;;16.00;10.60;;;;;;;16.66;100.00;101746.54;109421;1241;61275;-80
2023/09/17 03:58:08;;;;;;;16.00;10.30;;;;;;;16.63;100.00;101747.65;109526;1243;70523;-79
2023/09/17 04:00:44;;;;;;;15.90;10.10;;;;;;;16.63;100.00;101750.13;109416;1241;62997;-79
2023/09/17 04:03:17;;;;;;;13.70;10.20;;;;;;;16.63;100.00;101748.00;109391;1241;61996;-84
2023/09/17 04:05:49;;;;;;;14.00;9.70;;;;;;;16.66;100.00;101749.65;109568;1241;61032;-74
2023/09/17 04:08:18;;;;;;;20.40;11.10;;;;;;;16.69;100.00;101748.20;109587;1241;62914;-75
2023/09/17 04:10:49;;;;;;;13.90;10.40;;;;;;;16.72;100.00;101749.80;109456;1241;61492;-74
2023/09/17 04:13:19;;;;;;;16.50;10.80;;;;;;;16.72;100.00;101748.70;109591;1241;59068;-75
2023/09/17 04:15:49;;;;;;;14.80;10.60;;;;;;;16.76;100.00;101750.67;109626;1240;72416;-65
2023/09/17 04:18:18;;;;;;;15.10;10.00;;;;;;;16.79;100.00;101750.58;109350;1246;57851;-66
2023/09/17 04:20:51;;;;;;;15.20;10.10;;;;;;;16.82;100.00;101752.86;109598;1241;57752;-65
2023/09/17 04:23:20;;;;;;;;;;;;;;;16.84;100.00;101752.13;109415;1241;63592;-65
2023/09/17 04:25:49;;;;;;;22.30;10.80;;;;;;;16.86;100.00;101753.52;109321;1241;72206;-66
2023/09/17 04:28:19;;;;;;;17.70;11.60;;;;;;;16.90;100.00;101757.96;109452;1240;59570;-66
2023/09/17 04:30:48;;;;;;;17.40;10.70;;;;;;;16.93;100.00;101755.79;109537;1241;73895;-65
2023/09/17 04:33:19;;;;;;;18.70;10.80;;;;;;;16.99;100.00;101754.24;109627;1241;58349;-66
2023/09/17 04:35:48;;;;;;;14.10;10.30;;;;;;;17.05;100.00;101757.65;109643;1241;58401;-66
2023/09/17 04:38:18;;;;;;;15.30;10.20;;;;;;;17.09;100.00;101753.92;109586;1240;63679;-67
2023/09/17 04:40:49;;;;;;;18.40;10.20;;;;;;;17.15;100.00;101749.86;109544;1240;61287;-68
2023/09/17 04:43:20;;;;;;;17.50;10.70;;;;;;;17.24;100.00;101753.56;109654;1241;60058;-66
2023/09/17 04:45:49;;;;;;;14.40;9.40;;;;;;;17.32;100.00;101752.52;109550;1241;63307;-67
2023/09/17 04:48:28;;;;;;;14.30;9.40;;;;;;;17.42;100.00;101750.42;109472;1243;62855;-67
2023/09/17 04:50:56;;;;;;;16.10;9.90;;;;;;;17.50;100.00;101750.27;109541;1241;61069;-67
2023/09/17 04:53:25;;;;;;;14.00;9.10;;;;;;;17.57;100.00;101747.45;109648;1241;74924;-66
2023/09/17 04:55:54;;;;;;;16.00;8.80;;;;;;;17.68;100.00;101742.19;109476;1240;72199;-66
2023/09/17 04:58:28;;;;;;;12.20;9.00;;;;;;;17.77;100.00;101743.39;109635;1241;59605;-66
2023/09/17 05:00:58;;;;;;;13.60;9.10;;;;;;;17.85;100.00;101746.23;109579;1243;73800;-66
2023/09/17 05:03:26;;;;;;;16.10;8.80;;;;;;;17.99;100.00;101749.55;109557;1243;62698;-66
2023/09/17 05:05:56;;;;;;;11.20;8.40;;;;;;;18.03;100.00;101749.95;109553;1241;61628;-66
2023/09/17 05:08:25;;;;;;;12.10;7.70;;;;;;;18.08;100.00;101751.11;109650;1241;65901;-66
2023/09/17 05:10:54;;;;;;;14.70;8.60;;;;;;;18.17;100.00;101754.70;109673;1241;62248;-66
2023/09/17 05:13:24;;;;;;;13.50;7.60;;;;;;;18.23;100.00;101759.29;109642;1240;59226;-66
2023/09/17 05:15:53;;;;;;;11.80;8.10;;;;;;;18.32;100.00;101762.06;109617;1240;62302;-68
2023/09/17 05:18:22;;;;;;;12.80;7.50;;;;;;;18.38;100.00;101761.15;109578;1240;57747;-65
2023/09/17 05:20:53;;;;;;;10.70;7.40;;;;;;;18.38;100.00;101763.05;109611;1241;58308;-66
2023/09/17 05:23:24;;;;;;;12.90;7.90;;;;;;;18.47;100.00;101763.00;109541;1241;63825;-66
2023/09/17 05:25:58;;;;;;;12.10;7.70;;;;;;;18.55;100.00;101764.39;109586;1241;72146;-66
2023/09/17 05:28:28;;;;;;;15.50;10.20;;;;;;;18.58;100.00;101765.02;109656;1241;59457;-66
2023/09/17 05:30:57;;;;;;;13.30;8.80;;;;;;;18.63;100.00;101764.40;109520;1241;63241;-67
2023/09/17 05:33:26;;;;;;;16.10;8.10;;;;;;;18.68;100.00;101768.90;109637;1241;58346;-65
2023/09/17 05:35:59;;;;;;;10.10;7.90;;;;;;;18.73;100.00;101768.25;109556;1241;58168;-65
2023/09/17 05:38:28;;;;;;;13.70;8.20;;;;;;;18.81;100.00;101770.15;109541;1241;73676;-68
2023/09/17 05:40:58;;;;;;;10.30;8.10;;;;;;;18.87;100.00;101771.21;109427;1240;72595;-67
2023/09/17 05:43:27;;;;;;;16.30;7.60;;;;;;;18.91;100.00;101775.14;109297;1241;60445;-66
2023/09/17 05:45:57;;;;;;;12.60;8.00;;;;;;;18.95;100.00;101776.31;109418;1244;73695;-66
2023/09/17 05:48:33;;;;;;;15.00;7.90;;;;;;;19.11;100.00;101778.09;109566;1243;60754;-66
2023/09/17 05:51:03;;;;;;;14.00;8.10;;;;;;;19.16;100.00;101782.88;109621;1240;61145;-69
2023/09/17 05:53:33;;;;;;;14.80;9.10;;;;;;;19.20;100.00;101782.38;109508;1241;72538;-69
2023/09/17 05:56:07;;;;;;;11.80;7.30;;;;;;;19.29;100.00;101782.23;109578;1241;71895;-68
2023/09/17 05:58:36;;;;;;;11.30;7.50;;;;;;;19.40;100.00;101781.55;109449;1241;69187;-67
2023/09/17 06:01:07;;;;;;;13.00;7.70;;;;;;;19.41;100.00;101780.03;109643;1240;63456;-67
2023/09/17 06:03:36;;;;;;;11.20;7.80;;;;;;;19.44;100.00;101783.95;109631;1241;58260;-67
2023/09/17 06:06:05;;;;;;;14.50;7.40;;;;;;;19.43;100.00;101782.84;109628;1240;58560;-67
2023/09/17 06:08:34;;;;;;;10.60;7.90;;;;;;;19.54;100.00;101786.42;109657;1240;74409;-67
2023/09/17 06:11:03;;;;;;;10.10;7.60;;;;;;;19.67;100.00;101788.40;109627;1241;72684;-68
2023/09/17 06:13:33;;;;;;;10.60;6.90;;;;;;;19.88;100.00;101787.89;109622;1241;69556;-71
2023/09/17 06:16:02;;;;;;;8.90;6.30;;;;;;;20.01;100.00;101781.86;109658;1240;63606;-67
2023/09/17 06:18:32;;;;;;;12.10;7.80;;;;;;;19.97;100.00;101787.03;109604;1241;61849;-67
2023/09/17 06:21:03;;;;;;;11.20;6.80;;;;;;;20.06;100.00;101782.77;109599;1240;63319;-68
2023/09/17 06:23:32;;;;;;;11.30;7.10;;;;;;;20.14;100.00;101789.95;109733;1241;63981;-66
2023/09/17 06:26:01;;;;;;;12.70;6.80;;;;;;;20.28;100.00;101790.52;109684;1241;60758;-67
2023/09/17 06:28:30;;;;;;;11.60;7.40;;;;;;;20.38;100.00;101794.73;109495;1241;60113;-67
2023/09/17 06:30:59;;;;;;;14.70;6.50;;;;;;;20.44;100.00;101796.77;109573;1241;63158;-66
2023/09/17 06:33:29;;;;;;;12.60;6.80;;;;;;;20.63;100.00;101800.08;109484;1244;57769;-69
2023/09/17 06:35:58;;;;;;;8.80;7.10;;;;;;;20.70;100.00;101797.97;109676;1240;58323;-68
2023/09/17 06:38:27;;;;;;;14.00;6.80;;;;;;;20.74;100.00;101801.80;109570;1240;66186;-68
2023/09/17 06:40:57;;;;;;;11.00;6.80;;;;;;;20.85;100.00;101803.09;109612;1241;72687;-69
2023/09/17 06:43:26;;;;;;;10.10;6.70;;;;;;;21.01;100.00;101803.63;109684;1241;70105;-68
2023/09/17 06:45:56;;;;;;;11.80;6.60;;;;;;;20.99;100.00;101803.28;109612;1240;63671;-68
2023/09/17 06:48:25;;;;;;;10.90;6.90;;;;;;;21.11;100.00;101809.86;109686;1241;61857;-68
2023/09/17 06:50:55;;;;;;;9.40;6.30;;;;;;;21.20;100.00;101809.83;109658;1240;57759;-67
2023/09/17 06:53:24;;;;;;;11.30;7.60;;;;;;;21.10;100.00;101814.34;109615;1239;73797;-69
2023/09/17 06:55:53;;;;;;;10.10;6.80;;;;;;;21.25;100.00;101813.04;109688;1240;72912;-69
2023/09/17 06:58:22;;;;;;;12.00;7.40;;;;;;;21.19;100.00;101813.79;109602;1241;70539;-68
2023/09/17 07:00:52;;;;;;;8.60;6.80;;;;;;;21.06;100.00;101811.74;109500;1241;73929;-67
2023/09/17 07:03:21;;;;;;;9.20;6.50;;;;;;;21.24;100.00;101816.02;109546;1241;61796;-68
2023/09/17 07:05:50;;;;;;;12.90;8.90;;;;;;;21.40;100.00;101812.23;109593;1240;61707;-66
2023/09/17 07:08:19;;;;;;;10.10;6.70;;;;;;;21.54;100.00;101812.78;109545;1240;74914;-67
2023/09/17 07:10:48;;;;;;;12.90;6.70;;;;;;;21.56;100.00;101812.27;109607;1240;60958;-67
2023/09/17 07:13:17;;;;;;;11.10;6.50;;;;;;;21.55;100.00;101812.59;109680;1240;59283;-66
2023/09/17 07:15:46;;;;;;;10.00;6.60;;;;;;;21.55;100.00;101810.77;109613;1241;62305;-68
2023/09/17 07:18:15;;;;;;;10.20;6.60;;;;;;;21.59;100.00;101811.09;109472;1241;57756;-67
2023/09/17 07:20:44;;;;;;;10.10;6.60;;;;;;;21.48;100.00;101811.27;109479;1241;58342;-67
2023/09/17 07:23:13;;;;;;;9.90;6.40;;;;;;;21.55;100.00;101810.23;109455;1240;64786;-67
2023/09/17 07:25:45;;;;;;;11.20;6.80;;;;;;;21.59;100.00;101810.20;109482;1240;61543;-68
2023/09/17 07:28:14;;;;;;;9.30;6.50;;;;;;;21.82;100.00;101802.98;109473;1240;59066;-68
2023/09/17 07:30:43;;;;;;;9.00;6.60;;;;;;;21.98;100.00;101806.80;109682;1241;62286;-69
2023/09/17 07:33:12;;;;;;;8.90;6.30;;;;;;;22.18;100.00;101803.37;109678;1240;57857;-66
2023/09/17 07:35:41;;;;;;;9.80;7.00;;;;;;;22.31;100.00;101806.76;109634;1242;58260;-67
2023/09/17 07:38:10;;;;;;;12.40;6.30;;;;;;;22.47;100.00;101807.54;109654;1241;63796;-67
2023/09/17 07:40:39;;;;;;;10.80;6.60;;;;;;;22.77;100.00;101807.10;109568;1240;71786;-67
2023/09/17 07:43:08;;;;;;;11.20;7.00;;;;;;;22.92;100.00;101808.14;109491;1241;70952;-68
2023/09/17 07:45:37;;;;;;;12.60;6.60;;;;;;;22.62;99.18;101805.88;109365;1240;73368;-67
2023/09/17 07:48:06;;;;;;;8.30;6.00;;;;;;;22.51;99.26;101803.65;109501;1241;60691;-67
2023/09/17 07:50:35;;;;;;;8.50;5.50;;;;;;;22.60;97.11;101803.04;109625;1240;60640;-69
2023/09/17 07:53:04;;;;;;;10.60;5.70;;;;;;;22.49;94.62;101801.39;109559;1240;74756;-69
2023/09/17 07:55:33;;;;;;;10.20;5.30;;;;;;;22.51;94.01;101807.75;109615;1240;72423;-69
2023/09/17 07:58:03;;;;;;;10.70;6.40;;;;;;;22.61;94.42;101804.74;109589;1240;71032;-68
2023/09/17 08:00:32;;;;;;;12.70;5.70;;;;;;;22.81;93.23;101803.09;109468;1242;63931;-66
2023/09/17 08:03:02;;;;;;;9.00;5.80;;;;;;;23.01;91.73;101800.57;109468;1241;57811;-67
2023/09/17 08:05:33;;;;;;;9.70;5.70;;;;;;;23.07;92.01;101804.23;109271;1241;60433;-67
2023/09/17 08:08:02;;;;;;;8.40;5.60;;;;;;;22.97;91.44;101801.30;109479;1241;64867;-67
2023/09/17 08:10:31;;;;;;;8.30;5.90;;;;;;;23.02;91.93;101799.27;109460;1242;61473;-68
2023/09/17 08:13:00;;;;;;;7.80;5.80;;;;;;;23.17;91.24;101796.00;109555;1241;59180;-67
2023/09/17 08:15:29;;;;;;;7.30;5.50;;;;;;;23.30;90.84;101793.73;109591;1241;71748;-67
2023/09/17 08:17:58;;;;;;;9.30;5.00;;;;;;;23.40;90.70;101792.35;109330;1244;61801;-68
2023/09/17 08:20:28;;;;;;;10.30;5.30;;;;;;;23.42;90.28;101788.82;109460;1241;57728;-68
2023/09/17 08:22:57;;;;;;;7.30;5.00;;;;;;;23.39;89.81;101791.81;109543;1240;74371;-68
2023/09/17 08:25:26;;;;;;;7.10;5.30;;;;;;;23.20;89.01;101785.05;109441;1240;72555;-67
2023/09/17 08:27:55;;;;;;;7.10;4.70;;;;;;;23.11;89.25;101788.52;109626;1240;60285;-68
2023/09/17 08:30:24;;;;;;;7.80;5.10;;;;;;;23.18;88.95;101790.23;109496;1241;63300;-69
2023/09/17 08:32:53;;;;;;;8.90;5.00;;;;;;;23.11;89.48;101789.88;109399;1244;58362;-68
2023/09/17 08:35:22;;;;;;;10.60;5.30;;;;;;;23.32;88.74;101785.98;109520;1242;58285;-68
2023/09/17 08:37:51;;;;;;;8.80;5.00;;;;;;;23.50;88.12;101784.73;109547;1241;63820;-69
2023/09/17 08:40:23;;;;;;;8.30;4.40;;;;;;;23.60;87.26;101780.50;109496;1242;61474;-69
2023/09/17 08:42:52;;;;;;;7.70;5.00;;;;;;;23.75;86.98;101780.54;109447;1245;59052;-69
2023/09/17 08:45:22;;;;;;;8.20;5.00;;;;;;;23.69;85.74;101777.62;109620;1240;72835;-68
2023/09/17 08:47:51;;;;;;;7.30;4.60;;;;;;;23.87;85.24;101780.76;109503;1243;58687;-69
2023/09/17 08:50:20;;;;;;;10.40;5.10;;;;;;;23.81;84.32;101775.04;109667;1243;59249;-69
2023/09/17 08:52:59;;;;;;;8.30;5.00;;;;;;;24.01;85.43;101770.33;109695;1242;64067;-69
2023/09/17 08:55:30;;;;;;;7.80;5.20;;;;;;;24.32;81.70;101770.00;109645;1241;72210;-68
2023/09/17 08:58:24;;;;;;;8.50;4.50;;;;;;;24.36;82.07;101768.30;109884;1240;71145;-68
2023/09/17 09:00:58;;;;;;;7.30;4.80;;;;;;;24.43;80.88;101770.84;109532;1242;72518;-68
2023/09/17 09:03:28;;;;;;;8.00;5.20;;;;;;;24.52;81.31;101772.48;109465;1244;62042;-69
2023/09/17 09:05:58;;;;;;;6.40;5.00;;;;;;;24.60;80.84;101769.81;109646;1242;58316;-68
2023/09/17 09:08:29;;;;;;;7.40;5.20;;;;;;;24.56;79.80;101767.23;109588;1244;63763;-69
2023/09/17 09:10:59;;;;;;;7.70;4.90;;;;;;;24.66;80.02;101757.88;109551;1241;72206;-69
2023/09/17 09:13:30;;;;;;;10.30;5.40;;;;;;;24.96;79.99;101756.54;109629;1244;60176;-70
2023/09/17 09:16:00;;;;;;;7.80;4.70;;;;;;;24.82;77.67;101754.61;109589;1244;73883;-69
2023/09/17 09:18:29;;;;;;;7.50;4.60;;;;;;;24.92;78.05;101756.41;109608;1242;57790;-69
2023/09/17 09:20:58;;;;;;;6.80;4.60;;;;;;;24.94;74.17;101758.66;109618;1241;57661;-68
2023/09/17 09:23:27;;;;;;;7.80;5.70;;;;;;;25.02;72.84;101754.23;109692;1241;64495;-68
2023/09/17 09:25:56;;;;;;;6.20;4.60;;;;;;;25.19;73.76;101749.33;109438;1240;62669;-68
2023/09/17 09:28:30;;;;;;;6.70;4.80;;;;;;;25.53;71.60;101751.53;109735;1240;61566;-68
2023/09/17 09:31:00;;;;;;;7.30;4.60;;;;;;;25.62;69.83;101751.77;109728;1241;64966;-69
2023/09/17 09:33:31;;;;;;;7.10;4.60;;;;;;;25.65;64.98;101748.74;109694;1241;58239;-68
2023/09/17 09:36:01;;;;;;;9.20;4.70;;;;;;;25.58;65.37;101747.73;109557;1239;61577;-69
2023/09/17 09:38:32;;;;;;;5.90;4.00;;;;;;;25.78;62.27;101745.48;109802;1240;64443;-69
2023/09/17 09:41:01;;;;;;;6.70;4.20;;;;;;;25.76;60.75;101743.77;109551;1240;60869;-68
2023/09/17 09:43:32;;;;;;;7.90;3.60;;;;;;;26.02;58.72;101739.16;109633;1241;69717;-69
2023/09/17 09:46:05;;;;;;;4.70;3.30;;;;;;;25.89;57.10;101745.98;109508;1240;65394;-68
2023/09/17 09:48:38;;;;;;;8.20;3.40;;;;;;;25.49;56.68;101746.54;109507;1242;58315;-68
2023/09/17 09:51:08;;;;;;;6.60;3.90;;;;;;;25.62;58.12;101741.16;109345;1244;58375;-69
2023/09/17 09:53:37;;;;;;;7.80;4.10;;;;;;;25.65;59.05;101738.56;109566;1240;73541;-68
2023/09/17 09:56:05;;;;;;;8.80;3.90;;;;;;;25.91;59.94;101730.89;109628;1240;63619;-69
2023/09/17 09:58:36;;;;;;;9.90;4.80;;;;;;;25.98;59.33;101731.31;109405;1240;70993;-68
2023/09/17 10:01:05;;;;;;;7.50;4.60;;;;;;;25.77;62.35;101734.57;109363;1240;63762;-70
2023/09/17 10:03:34;;;;;;;9.10;4.70;;;;;;;25.38;65.14;101733.36;109366;1240;58272;-69
2023/09/17 10:06:07;;;;;;;7.20;4.40;;;;;;;25.58;65.69;101735.13;109334;1241;57808;-71
2023/09/17 10:08:40;;;;;;;7.50;4.10;;;;;;;25.60;66.63;101735.73;109519;1240;63618;-68
2023/09/17 10:11:09;;;;;;;6.10;4.10;;;;;;;25.63;66.51;101735.88;109639;1241;71600;-70
2023/09/17 10:13:38;;;;;;;6.50;5.10;;;;;;;25.59;66.84;101734.20;109622;1240;60144;-68
2023/09/17 10:16:07;;;;;;;8.10;4.70;;;;;;;25.75;66.16;101732.38;109523;1240;62337;-68
2023/09/17 10:18:38;;;;;;;6.10;4.30;;;;;;;25.87;66.64;101726.45;109499;1240;60482;-68
2023/09/17 10:21:09;;;;;;;7.20;4.80;;;;;;;26.04;66.60;101726.13;109700;1240;58354;-68
2023/09/17 10:23:39;;;;;;;8.00;4.70;;;;;;;26.30;65.32;101725.95;109504;1240;63000;-67
2023/09/17 10:26:10;;;;;;;7.00;4.30;;;;;;;26.66;66.18;101728.19;109519;1240;71338;-68
2023/09/17 10:28:40;;;;;;;7.20;4.60;;;;;;;26.96;62.95;101724.79;109589;1240;70786;-67
2023/09/17 10:31:10;;;;;;;9.00;4.70;;;;;;;27.13;61.21;101719.38;109485;1240;62755;-67
2023/09/17 10:33:44;;;;;;;8.00;5.10;;;;;;;27.68;59.93;101716.79;109459;1240;61467;-69
2023/09/17 10:36:14;;;;;;;6.20;4.40;;;;;;;27.24;59.77;101717.73;109363;1240;57800;-69
2023/09/17 10:38:44;;;;;;;6.90;4.30;;;;;;;26.80;59.99;101716.70;109308;1240;378133;-69
2023/09/17 10:41:13;;;;;;;5.10;4.30;;;;;;;27.13;59.93;101712.84;109755;1240;71480;-68
2023/09/17 10:43:46;;;;;;;8.60;5.00;;;;;;;27.13;58.87;101714.45;109680;1240;70969;-70
2023/09/17 10:46:19;;;;;;;8.80;4.60;;;;;;;26.11;62.37;101712.51;109600;1240;63136;-67
2023/09/17 10:48:50;;;;;;;8.50;4.90;;;;;;;26.09;63.79;101708.66;109720;1241;59368;-69
2023/09/17 10:51:20;;;;;;;9.30;4.90;;;;;;;26.59;62.70;101710.88;109634;1240;58301;-73
2023/09/17 10:53:49;;;;;;;8.40;5.00;;;;;;;27.10;60.32;101706.45;109452;1244;64937;-68
2023/09/17 10:56:19;;;;;;;7.60;4.60;;;;;;;26.86;60.27;101711.58;109565;1241;62574;-68
2023/09/17 10:58:52;;;;;;;7.30;4.60;;;;;;;26.58;60.68;101709.07;109417;1241;69981;-69
2023/09/17 11:01:29;;;;;;;8.80;4.80;;;;;;;26.11;62.01;101704.60;109273;1242;74356;-69
2023/09/17 11:04:15;;;;;;;5.90;4.20;;;;;;;26.10;61.89;101706.08;109352;1241;58351;-70
2023/09/17 11:06:48;;;;;;;6.60;4.50;;;;;;;26.34;60.62;101706.59;109308;1240;58295;-68
2023/09/17 11:09:17;;;;;;;8.40;4.50;;;;;;;26.47;60.12;101704.34;109408;1240;73378;-68
2023/09/17 11:11:46;;;;;;;6.60;4.60;;;;;;;26.51;59.45;101703.90;109519;1241;62995;-69
2023/09/17 11:14:16;;;;;;;5.30;4.20;;;;;;;26.76;59.16;101699.50;109510;1240;61797;-70
2023/09/17 11:16:48;;;;;;;8.20;4.80;;;;;;;26.63;58.14;101693.77;109415;1240;74584;-71
2023/09/17 11:19:20;;;;;;;7.60;4.70;;;;;;;26.95;57.70;101695.46;109416;1243;58460;-70